Time;durP1;ratioP1;P1;durP2;ratioP2;P2;SDS_P1;SDS_P2;PMS_P1;PMS_P2;Temp;Humidity;BMP_temperature;BMP_pressure;BME280_temperature;BME280_humidity;BME280_pressure;Samples;Min_cycle;Max_cycle;Signal;HPM_P1;HPM_P2
2023/05/03 00:00:35;;;;;;;3.65;1.67;;;;;;;15.53;31.67;95234.84;5047422;28;20190;-69
2023/05/03 00:03:05;;;;;;;2.88;1.60;;;;;;;15.23;31.98;95234.69;5045505;28;20222;-69
2023/05/03 00:05:31;;;;;;;1.90;1.58;;;;;;;15.40;31.71;95236.25;5041667;28;20241;-68
2023/05/03 00:07:57;;;;;;;4.07;1.83;;;;;;;15.42;31.66;95239.56;5033988;28;20272;-69
2023/05/03 00:10:23;;;;;;;4.35;1.90;;;;;;;15.40;31.46;95233.59;5031666;28;20685;-69
2023/05/03 00:12:48;;;;;;;4.30;1.65;;;;;;;15.40;31.15;95264.59;5052055;28;20212;-68
2023/05/03 00:15:13;;;;;;;2.53;1.83;;;;;;;15.12;31.89;95251.00;5046810;28;20335;-69
2023/05/03 00:17:39;;;;;;;2.55;1.65;;;;;;;14.98;32.02;95242.78;5042895;28;20225;-69
2023/05/03 00:20:06;;;;;;;4.05;1.77;;;;;;;15.04;31.82;95251.03;5024733;28;20218;-69
2023/05/03 00:22:31;;;;;;;3.35;1.38;;;;;;;15.10;31.71;95247.69;5040581;28;20287;-69
2023/05/03 00:24:58;;;;;;;4.43;2.03;;;;;;;15.11;31.37;95252.81;5029682;28;20197;-68
2023/05/03 00:27:23;;;;;;;2.85;1.65;;;;;;;15.07;31.58;95243.56;5036501;28;20221;-69
2023/05/03 00:29:53;;;;;;;2.92;1.70;;;;;;;15.14;31.61;95249.00;5037597;28;20276;-69
2023/05/03 00:32:22;;;;;;;3.67;1.90;;;;;;;15.18;31.53;95250.28;5033356;28;20228;-68
2023/05/03 00:34:55;;;;;;;3.10;1.67;;;;;;;15.08;31.66;95241.75;5029177;28;20221;-68
2023/05/03 00:37:20;;;;;;;2.55;1.70;;;;;;;15.05;31.79;95244.72;5039562;28;20182;-69
2023/05/03 00:39:45;;;;;;;5.22;1.65;;;;;;;14.84;32.50;95240.06;5030059;28;20185;-69
2023/05/03 00:42:11;;;;;;;1.77;1.63;;;;;;;14.93;32.21;95239.84;5033322;28;20218;-69
2023/05/03 00:44:36;;;;;;;4.07;1.85;;;;;;;14.94;31.86;95238.84;5030334;28;20699;-69
2023/05/03 00:47:03;;;;;;;3.30;1.60;;;;;;;14.91;31.95;95241.81;5033167;28;20263;-69
2023/05/03 00:49:29;;;;;;;2.72;1.75;;;;;;;15.10;31.59;95245.88;5044927;28;20253;-69
2023/05/03 00:51:56;;;;;;;2.05;1.60;;;;;;;14.75;31.95;95247.19;5024883;28;20674;-69
2023/05/03 00:54:22;;;;;;;2.75;1.98;;;;;;;14.51;32.43;95242.78;5035061;28;20221;-69
2023/05/03 00:56:47;;;;;;;3.78;1.80;;;;;;;14.36;32.78;95252.44;5023408;28;20283;-69
2023/05/03 00:59:13;;;;;;;2.45;1.90;;;;;;;14.32;32.81;95252.75;5035539;28;20218;-69
2023/05/03 01:01:39;;;;;;;2.47;1.67;;;;;;;14.50;32.49;95255.19;5024131;28;20225;-69
2023/05/03 01:04:06;;;;;;;2.10;1.60;;;;;;;14.63;32.30;95259.97;5025014;28;20298;-69
2023/05/03 01:06:57;;;;;;;2.88;1.65;;;;;;;14.62;32.63;95247.75;5049041;28;20185;-69
2023/05/03 01:09:33;;;;;;;3.90;2.00;;;;;;;14.69;32.40;95232.81;5024782;28;20225;-69
2023/05/03 01:12:19;;;;;;;2.47;1.80;;;;;;;14.90;32.07;95234.88;5027028;28;20220;-69
2023/05/03 01:15:06;;;;;;;2.83;1.70;;;;;;;14.69;31.92;95242.59;5040193;28;20218;-70
2023/05/03 01:17:50;;;;;;;2.80;1.85;;;;;;;14.75;32.16;95229.50;5033354;28;20230;-69
2023/05/03 01:20:21;;;;;;;2.83;2.03;;;;;;;14.78;31.88;95218.56;5040919;28;20222;-69
2023/05/03 01:22:58;;;;;;;2.45;1.60;;;;;;;14.72;32.13;95213.13;5028064;28;20224;-69
2023/05/03 01:25:24;;;;;;;2.38;1.60;;;;;;;14.73;32.28;95206.84;5018878;28;20248;-69
2023/05/03 01:27:49;;;;;;;3.08;2.00;;;;;;;14.75;32.43;95224.22;5031967;28;20209;-69
2023/05/03 01:30:15;;;;;;;2.58;1.80;;;;;;;14.77;32.13;95227.50;5026164;28;20244;-69
2023/05/03 01:33:09;;;;;;;3.53;1.85;;;;;;;14.80;32.13;95228.16;5028276;28;20206;-69
2023/05/03 01:35:45;;;;;;;2.65;1.70;;;;;;;14.77;32.10;95219.56;5035338;28;20218;-69
2023/05/03 01:38:12;;;;;;;3.53;1.77;;;;;;;14.91;31.87;95223.28;5030146;28;20233;-68
2023/05/03 01:40:46;;;;;;;2.55;2.00;;;;;;;14.81;32.17;95214.75;5027813;28;20217;-67
2023/05/03 01:43:14;;;;;;;3.10;1.73;;;;;;;14.87;32.07;95219.34;5021371;28;20206;-68
2023/05/03 01:45:41;;;;;;;2.72;1.88;;;;;;;14.73;32.21;95206.84;5028356;28;20189;-68
2023/05/03 01:48:12;;;;;;;2.80;1.90;;;;;;;14.78;32.17;95210.63;5032549;28;20247;-69
2023/05/03 01:50:37;;;;;;;3.35;1.70;;;;;;;14.67;32.24;95207.53;5034817;28;20216;-68
2023/05/03 01:53:02;;;;;;;5.97;1.95;;;;;;;14.74;32.10;95213.78;5033051;28;20218;-69
2023/05/03 01:55:28;;;;;;;3.53;2.10;;;;;;;14.65;32.33;95209.50;5052687;28;20213;-69
2023/05/03 01:57:53;;;;;;;3.00;1.67;;;;;;;14.69;32.49;95206.34;5046211;28;20649;-69
2023/05/03 02:00:19;;;;;;;2.85;1.60;;;;;;;14.67;32.58;95199.59;5043714;28;20253;-69
2023/05/03 02:02:45;;;;;;;3.55;2.00;;;;;;;14.79;32.59;95187.63;5014085;28;20222;-69
2023/05/03 02:05:11;;;;;;;2.15;1.67;;;;;;;14.66;32.73;95185.53;5029257;28;20232;-67
2023/05/03 02:07:37;;;;;;;3.50;2.03;;;;;;;14.64;32.82;95184.88;5032660;28;20232;-68
2023/05/03 02:10:03;;;;;;;2.40;1.75;;;;;;;14.56;32.89;95176.97;5046805;28;20178;-69
2023/05/03 02:12:29;;;;;;;2.40;1.70;;;;;;;14.64;32.82;95176.94;5030395;28;20177;-69
2023/05/03 02:14:55;;;;;;;2.63;1.80;;;;;;;14.55;32.94;95180.63;5033523;28;20247;-68
2023/05/03 02:17:20;;;;;;;3.83;1.85;;;;;;;14.33;33.37;95172.41;5009390;28;20260;-69
2023/05/03 02:19:46;;;;;;;4.60;1.85;;;;;;;14.19;33.33;95173.09;5034600;28;20221;-69
2023/05/03 02:22:11;;;;;;;2.88;2.40;;;;;;;14.13;33.47;95177.25;5038465;28;20259;-69
2023/05/03 02:24:38;;;;;;;2.13;1.70;;;;;;;14.09;33.65;95168.03;5028782;28;20192;-68
2023/05/03 02:27:04;;;;;;;3.53;1.90;;;;;;;13.86;33.95;95156.50;5025544;28;20221;-68
2023/05/03 02:29:30;;;;;;;4.45;2.00;;;;;;;13.86;34.08;95159.97;5034877;28;20252;-68
2023/05/03 02:31:56;;;;;;;4.63;1.70;;;;;;;13.69;34.48;95163.66;5016680;28;20220;-69
2023/05/03 02:34:22;;;;;;;2.28;1.95;;;;;;;13.71;34.54;95159.00;5035766;28;20255;-68
2023/05/03 02:36:48;;;;;;;3.63;2.03;;;;;;;13.87;34.02;95168.72;5027544;28;20193;-69
2023/05/03 02:39:13;;;;;;;3.20;2.00;;;;;;;13.89;33.92;95167.56;5044398;28;20225;-69
2023/05/03 02:41:38;;;;;;;2.75;2.15;;;;;;;13.94;34.09;95171.53;5029743;28;20222;-68
2023/05/03 02:44:04;;;;;;;6.47;2.15;;;;;;;13.72;34.49;95175.72;5022159;28;20241;-68
2023/05/03 02:46:30;;;;;;;2.75;1.80;;;;;;;13.76;34.27;95180.47;5031021;28;20683;-69
2023/05/03 02:48:55;;;;;;;4.63;1.80;;;;;;;13.59;34.60;95174.38;5028776;28;20188;-69
2023/05/03 02:51:20;;;;;;;5.28;1.90;;;;;;;13.54;34.74;95166.13;5027992;28;20225;-68
2023/05/03 02:53:46;;;;;;;3.10;2.13;;;;;;;13.70;34.41;95160.00;5039178;28;20277;-68
2023/05/03 02:56:11;;;;;;;2.55;1.90;;;;;;;13.63;34.89;95173.06;5032124;28;20289;-68
2023/05/03 02:58:36;;;;;;;2.75;1.90;;;;;;;13.72;34.55;95154.56;5033500;28;20236;-69
2023/05/03 03:01:02;;;;;;;3.08;1.67;;;;;;;13.69;34.41;95153.09;5028085;28;20197;-69
2023/05/03 03:03:27;;;;;;;4.10;2.00;;;;;;;13.66;34.57;95169.28;5031762;28;20225;-69
2023/05/03 03:05:53;;;;;;;3.13;1.83;;;;;;;13.71;34.64;95171.41;5024294;28;20647;-69
2023/05/03 03:08:18;;;;;;;2.65;2.15;;;;;;;13.53;35.07;95167.13;5027195;28;20359;-69
2023/05/03 03:10:43;;;;;;;3.47;2.00;;;;;;;13.44;35.34;95162.84;5030898;28;20221;-68
2023/05/03 03:13:09;;;;;;;3.92;1.85;;;;;;;13.44;35.31;95173.41;5020784;28;20265;-69
2023/05/03 03:15:34;;;;;;;4.47;2.17;;;;;;;13.58;35.12;95169.25;5029302;28;20178;-69
2023/05/03 03:18:00;;;;;;;2.00;1.80;;;;;;;13.45;35.20;95183.00;5031180;28;20237;-69
2023/05/03 03:20:25;;;;;;;2.50;1.77;;;;;;;13.36;35.67;95190.06;5039110;28;20241;-69
2023/05/03 03:22:51;;;;;;;2.25;1.83;;;;;;;13.44;35.51;95183.97;5023340;28;20337;-68
2023/05/03 03:25:16;;;;;;;5.72;2.20;;;;;;;13.41;35.62;95190.41;5043998;28;20253;-69
2023/05/03 03:27:41;;;;;;;3.13;2.08;;;;;;;13.50;35.20;95193.03;5033350;28;20251;-69
2023/05/03 03:30:09;;;;;;;3.33;1.80;;;;;;;13.58;35.04;95196.53;5037800;28;20241;-68
2023/05/03 03:32:34;;;;;;;2.72;2.00;;;;;;;13.63;35.04;95199.50;5049392;28;20218;-69
2023/05/03 03:35:00;;;;;;;4.07;2.10;;;;;;;13.59;35.39;95205.28;5031824;28;20324;-68
2023/05/03 03:37:25;;;;;;;2.13;1.75;;;;;;;13.50;35.56;95214.16;5029136;28;20248;-69
2023/05/03 03:39:51;;;;;;;6.25;1.77;;;;;;;13.25;35.48;95211.50;5024219;28;20188;-68
2023/05/03 03:42:16;;;;;;;4.15;2.17;;;;;;;13.23;35.95;95209.03;5023978;28;20253;-69
2023/05/03 03:44:42;;;;;;;2.83;1.77;;;;;;;13.34;35.47;95220.28;5026779;28;20244;-69
2023/05/03 03:47:07;;;;;;;6.53;2.28;;;;;;;13.24;35.68;95221.22;5034098;28;20699;-69
2023/05/03 03:49:32;;;;;;;3.55;2.22;;;;;;;13.30;35.66;95219.78;5028189;28;20300;-69
2023/05/03 03:51:58;;;;;;;3.88;2.20;;;;;;;13.42;35.75;95233.50;5032293;28;20216;-69
2023/05/03 03:54:23;;;;;;;3.50;2.08;;;;;;;13.42;35.27;95228.22;5044179;28;20218;-69
2023/05/03 03:56:51;;;;;;;6.30;2.35;;;;;;;13.39;35.48;95229.38;5033703;28;20221;-69
2023/05/03 03:59:16;;;;;;;5.63;2.38;;;;;;;13.43;35.49;95241.25;5033944;28;20297;-69
2023/05/03 04:01:42;;;;;;;3.40;2.22;;;;;;;13.60;35.34;95235.97;5033672;28;20309;-69
2023/05/03 04:04:07;;;;;;;2.67;2.08;;;;;;;13.60;35.19;95243.91;5033828;28;20206;-69
2023/05/03 04:06:33;;;;;;;3.05;2.17;;;;;;;13.47;35.04;95239.09;5028232;28;20257;-69
2023/05/03 04:08:58;;;;;;;6.22;2.47;;;;;;;13.31;35.34;95244.38;5030187;28;20228;-69
2023/05/03 04:11:23;;;;;;;3.60;2.20;;;;;;;13.25;35.48;95251.09;5026549;28;20214;-68
2023/05/03 04:13:49;;;;;;;6.78;2.53;;;;;;;13.12;36.09;95245.47;5026206;28;20681;-68
2023/05/03 04:16:15;;;;;;;3.05;2.10;;;;;;;13.20;35.88;95246.31;5041073;28;20224;-69
2023/05/03 04:18:44;;;;;;;5.95;2.22;;;;;;;13.22;35.70;95249.59;5028608;28;20743;-69
2023/05/03 04:21:09;;;;;;;6.80;2.40;;;;;;;13.32;35.64;95256.59;5031072;28;20217;-69
2023/05/03 04:23:35;;;;;;;4.72;2.30;;;;;;;13.11;36.02;95262.31;5027075;28;20249;-69
2023/05/03 04:26:00;;;;;;;3.10;2.30;;;;;;;12.93;36.70;95254.47;5023392;28;20218;-69
2023/05/03 04:28:26;;;;;;;4.47;2.03;;;;;;;13.28;36.50;95257.91;5030068;28;20229;-69
2023/05/03 04:30:52;;;;;;;3.58;2.10;;;;;;;13.10;37.33;95274.69;5031532;28;20181;-69
2023/05/03 04:33:20;;;;;;;2.58;2.13;;;;;;;13.13;37.54;95269.06;5033283;28;20217;-69
2023/05/03 04:35:50;;;;;;;4.60;2.38;;;;;;;12.93;38.45;95267.69;5031622;28;20238;-69
2023/05/03 04:38:16;;;;;;;4.78;2.08;;;;;;;12.90;37.73;95268.81;5026215;28;20247;-69
2023/05/03 04:40:41;;;;;;;4.18;2.50;;;;;;;12.95;38.12;95278.91;5025065;28;20248;-69
2023/05/03 04:43:07;;;;;;;4.72;2.45;;;;;;;12.74;37.99;95279.31;5036394;28;20271;-68
2023/05/03 04:45:33;;;;;;;4.38;2.83;;;;;;;12.82;37.93;95284.63;5028646;28;20174;-67
2023/05/03 04:47:58;;;;;;;4.43;2.38;;;;;;;12.94;38.18;95288.66;5031827;28;20222;-68
2023/05/03 04:50:24;;;;;;;3.63;2.50;;;;;;;13.08;38.08;95295.13;5033835;28;20222;-69
2023/05/03 04:52:50;;;;;;;8.02;2.50;;;;;;;13.05;37.95;95295.44;5024980;28;20304;-69
2023/05/03 04:55:16;;;;;;;5.10;2.72;;;;;;;13.25;38.16;95310.00;5039220;28;20280;-69
2023/05/03 04:57:41;;;;;;;4.22;2.65;;;;;;;13.15;38.06;95304.06;5035432;28;20170;-69
2023/05/03 05:00:10;;;;;;;3.00;2.70;;;;;;;13.08;38.30;95313.59;5042031;28;20217;-69
2023/05/03 05:02:36;;;;;;;4.47;2.53;;;;;;;13.04;39.01;95320.19;5032528;28;20238;-69
2023/05/03 05:05:02;;;;;;;4.35;2.67;;;;;;;13.12;39.50;95328.13;5022358;28;20233;-69
2023/05/03 05:07:28;;;;;;;3.38;3.03;;;;;;;12.98;40.75;95326.09;5027287;28;20277;-69
2023/05/03 05:09:53;;;;;;;4.00;2.88;;;;;;;13.11;42.56;95330.94;5034148;28;20201;-69
2023/05/03 05:12:19;;;;;;;5.68;2.50;;;;;;;13.03;43.59;95340.47;5033601;28;20225;-69
2023/05/03 05:14:44;;;;;;;3.75;2.70;;;;;;;12.89;42.58;95327.06;5031672;28;20228;-69
2023/05/03 05:17:10;;;;;;;3.20;2.65;;;;;;;12.98;42.44;95329.56;5035119;28;20233;-69
2023/05/03 05:19:35;;;;;;;3.17;2.60;;;;;;;13.02;41.37;95328.28;5030362;28;20253;-69
2023/05/03 05:22:01;;;;;;;4.65;2.88;;;;;;;13.11;40.85;95330.94;5026377;28;20668;-69
2023/05/03 05:24:26;;;;;;;2.88;2.55;;;;;;;12.93;40.85;95328.38;5029843;28;20221;-69
2023/05/03 05:26:52;;;;;;;4.00;2.83;;;;;;;12.80;41.28;95331.47;5021708;28;20293;-68
2023/05/03 05:29:17;;;;;;;5.43;2.97;;;;;;;12.80;41.61;95329.66;5031991;28;20241;-69
2023/05/03 05:31:43;;;;;;;4.40;2.28;;;;;;;12.84;41.05;95324.06;5031211;28;20224;-70
2023/05/03 05:34:08;;;;;;;6.32;2.92;;;;;;;12.84;40.50;95345.19;5022802;28;20178;-69
2023/05/03 05:36:34;;;;;;;5.05;2.70;;;;;;;12.82;40.57;95326.84;5027672;28;20645;-69
2023/05/03 05:38:59;;;;;;;3.97;2.38;;;;;;;12.91;40.33;95333.84;5033389;28;20216;-69
2023/05/03 05:41:25;;;;;;;2.53;2.30;;;;;;;13.19;39.65;95331.78;5035749;28;20225;-69
2023/05/03 05:43:50;;;;;;;8.73;2.70;;;;;;;13.19;39.26;95328.34;5031734;28;20294;-67
2023/05/03 05:46:16;;;;;;;5.22;2.78;;;;;;;13.24;39.37;95332.13;5023116;28;20194;-68
2023/05/03 05:48:42;;;;;;;6.38;2.42;;;;;;;13.33;39.48;95329.56;5030162;28;20182;-69
2023/05/03 05:51:08;;;;;;;3.50;2.33;;;;;;;13.41;39.24;95337.50;5033750;28;20232;-69
2023/05/03 05:53:33;;;;;;;5.03;2.60;;;;;;;13.31;39.25;95326.25;5019148;28;20214;-69
2023/05/03 05:55:59;;;;;;;4.53;2.50;;;;;;;13.11;40.13;95329.13;5031805;28;20745;-69
2023/05/03 05:58:24;;;;;;;3.53;2.40;;;;;;;13.20;40.68;95335.25;5026981;28;20323;-69
2023/05/03 06:00:50;;;;;;;6.00;2.90;;;;;;;13.21;40.68;95326.38;5028013;28;20186;-69
2023/05/03 06:03:16;;;;;;;6.15;2.40;;;;;;;13.15;40.02;95341.03;5027901;28;20234;-69
2023/05/03 06:05:41;;;;;;;6.55;2.47;;;;;;;13.16;40.51;95337.41;5031195;28;20244;-69
2023/05/03 06:08:07;;;;;;;2.95;2.35;;;;;;;13.34;41.90;95339.13;5024787;28;20316;-69
2023/05/03 06:10:33;;;;;;;7.45;5.28;;;;;;;13.45;41.80;95329.09;5029575;28;20225;-69
2023/05/03 06:12:59;;;;;;;4.63;3.03;;;;;;;13.39;41.64;95328.91;5036400;28;20212;-68
2023/05/03 06:15:25;;;;;;;3.45;2.78;;;;;;;13.35;42.00;95328.41;5022083;28;20221;-68
2023/05/03 06:17:50;;;;;;;5.93;2.90;;;;;;;13.11;41.58;95325.66;5034228;28;20217;-69
2023/05/03 06:20:17;;;;;;;3.97;2.72;;;;;;;13.11;43.52;95326.47;5031560;28;20217;-67
2023/05/03 06:22:42;;;;;;;4.32;2.63;;;;;;;13.08;43.46;95331.25;5033089;28;20349;-68
2023/05/03 06:25:08;;;;;;;2.85;2.60;;;;;;;13.25;42.61;95323.22;5031488;28;20216;-69
2023/05/03 06:27:33;;;;;;;5.43;2.83;;;;;;;13.36;41.69;95326.59;5028245;28;20269;-69
2023/05/03 06:29:59;;;;;;;2.92;2.60;;;;;;;13.63;40.85;95328.13;5028535;28;20220;-68
2023/05/03 06:32:24;;;;;;;4.88;2.65;;;;;;;13.44;41.41;95313.41;5031438;28;20252;-69
2023/05/03 06:34:51;;;;;;;5.03;2.80;;;;;;;13.22;41.58;95306.88;5027465;28;20236;-68
2023/05/03 06:37:16;;;;;;;3.10;2.42;;;;;;;13.28;41.35;95308.06;5032871;28;20207;-68
2023/05/03 06:39:42;;;;;;;4.10;2.60;;;;;;;13.36;41.56;95308.09;5035933;28;20186;-68
2023/05/03 06:42:07;;;;;;;3.70;2.80;;;;;;;13.40;41.64;95320.00;5038190;28;20279;-68
2023/05/03 06:44:33;;;;;;;2.83;2.47;;;;;;;13.46;41.62;95314.06;5030955;28;20210;-68
2023/05/03 06:46:58;;;;;;;4.10;2.88;;;;;;;13.46;41.47;95311.44;5024824;28;20221;-69
2023/05/03 06:49:24;;;;;;;5.43;2.97;;;;;;;13.52;41.14;95305.47;5027083;28;20218;-68
2023/05/03 06:51:49;;;;;;;4.43;3.13;;;;;;;13.42;41.11;95296.91;5032594;28;20260;-69
2023/05/03 06:54:15;;;;;;;4.78;2.70;;;;;;;13.19;41.60;95294.81;5027769;28;20278;-69
2023/05/03 06:56:40;;;;;;;7.07;3.42;;;;;;;13.20;41.52;95285.09;5030523;28;20288;-69
2023/05/03 06:59:07;;;;;;;5.97;3.22;;;;;;;13.44;40.87;95284.34;5028593;28;20221;-69
2023/05/03 07:01:33;;;;;;;4.75;3.28;;;;;;;13.60;40.77;95294.09;5030560;28;20241;-69
2023/05/03 07:03:59;;;;;;;3.80;3.00;;;;;;;13.58;40.42;95277.59;5030775;28;20256;-69
2023/05/03 07:06:24;;;;;;;5.72;3.05;;;;;;;13.43;40.71;95282.69;5041263;28;20228;-69
2023/05/03 07:08:51;;;;;;;4.93;3.28;;;;;;;13.50;40.56;95273.13;5039733;28;20277;-69
2023/05/03 07:11:21;;;;;;;8.70;2.75;;;;;;;13.74;40.44;95284.69;5032110;28;20225;-69
2023/05/03 07:13:46;;;;;;;4.65;3.22;;;;;;;13.88;39.79;95292.00;5034705;28;20247;-68
2023/05/03 07:16:12;;;;;;;4.68;2.80;;;;;;;13.86;40.01;95302.72;5037283;28;20185;-69
2023/05/03 07:18:37;;;;;;;5.07;3.30;;;;;;;13.71;40.06;95298.25;5031001;28;20178;-69
2023/05/03 07:21:05;;;;;;;3.78;2.60;;;;;;;13.58;40.51;95291.63;5025873;28;20213;-67
2023/05/03 07:23:31;;;;;;;4.97;2.58;;;;;;;13.75;40.13;95281.91;5027735;28;20241;-68
2023/05/03 07:25:56;;;;;;;7.13;3.50;;;;;;;13.96;40.05;95293.81;5036483;28;20217;-67
2023/05/03 07:28:22;;;;;;;7.15;2.72;;;;;;;14.07;40.14;95293.47;5034863;28;20246;-69
2023/05/03 07:30:47;;;;;;;4.28;2.88;;;;;;;14.07;40.04;95290.81;5031390;28;20190;-71
2023/05/03 07:33:13;;;;;;;3.40;2.95;;;;;;;14.30;39.93;95291.78;5036859;28;20256;-69
2023/05/03 07:35:38;;;;;;;6.10;3.15;;;;;;;14.10;40.38;95285.19;5033429;28;20297;-68
2023/05/03 07:38:04;;;;;;;2.67;2.40;;;;;;;14.04;40.53;95285.88;5028670;28;20221;-69
2023/05/03 07:40:31;;;;;;;7.43;2.45;;;;;;;14.19;40.45;95281.53;5027960;28;20234;-71
2023/05/03 07:42:59;;;;;;;2.65;2.33;;;;;;;14.37;40.12;95276.06;5035428;28;20251;-70
2023/05/03 07:45:25;;;;;;;2.97;2.35;;;;;;;14.41;39.90;95280.03;5032251;28;20213;-69
2023/05/03 07:47:51;;;;;;;3.45;2.38;;;;;;;14.51;39.69;95270.09;5036160;28;20448;-71
2023/05/03 07:50:16;;;;;;;4.55;2.22;;;;;;;14.53;39.71;95291.09;5030091;28;20222;-71
2023/05/03 07:52:42;;;;;;;4.63;2.42;;;;;;;14.66;39.63;95283.47;5036660;28;20218;-70
2023/05/03 07:55:08;;;;;;;4.38;2.40;;;;;;;14.71;39.64;95288.25;5033803;28;20186;-71
2023/05/03 07:57:33;;;;;;;4.45;2.70;;;;;;;14.69;39.74;95277.00;5009630;28;20259;-70
2023/05/03 07:59:59;;;;;;;3.63;2.70;;;;;;;14.70;39.86;95279.50;5031895;28;20550;-69
2023/05/03 08:02:24;;;;;;;3.50;2.85;;;;;;;14.76;39.79;95285.91;5036435;28;20226;-71
2023/05/03 08:04:50;;;;;;;7.10;2.80;;;;;;;14.70;40.19;95299.81;5044766;28;20604;-72
2023/05/03 08:07:18;;;;;;;4.30;3.00;;;;;;;14.95;39.50;95284.69;5034168;28;20194;-69
2023/05/03 08:09:44;;;;;;;3.35;2.92;;;;;;;15.06;39.55;95286.13;5030533;28;20268;-71
2023/05/03 08:12:10;;;;;;;3.17;2.88;;;;;;;14.95;39.97;95282.03;5031942;28;20213;-69
2023/05/03 08:14:36;;;;;;;3.47;2.60;;;;;;;15.05;39.98;95282.66;5026649;28;20218;-70
2023/05/03 08:17:03;;;;;;;5.10;3.22;;;;;;;15.38;39.15;95291.25;5033600;28;20230;-71
2023/05/03 08:19:29;;;;;;;6.53;4.07;;;;;;;15.51;39.06;95287.22;5033771;28;20226;-71
2023/05/03 08:21:55;;;;;;;4.40;3.78;;;;;;;15.52;39.09;95279.06;5024886;28;20193;-70
2023/05/03 08:24:20;;;;;;;3.22;2.92;;;;;;;15.70;38.89;95278.00;5033539;28;20218;-71
2023/05/03 08:26:47;;;;;;;3.65;3.30;;;;;;;15.60;38.89;95267.59;5035889;28;20218;-69
2023/05/03 08:29:13;;;;;;;3.92;2.78;;;;;;;15.85;38.79;95287.66;5025285;28;20646;-71
2023/05/03 08:31:39;;;;;;;3.95;2.55;;;;;;;16.04;38.52;95288.19;5028694;28;20217;-71
2023/05/03 08:34:06;;;;;;;3.75;3.42;;;;;;;16.12;38.60;95298.72;5029032;28;20196;-71
2023/05/03 08:36:32;;;;;;;3.28;2.75;;;;;;;16.26;38.08;95299.75;5025382;28;20205;-71
2023/05/03 08:38:58;;;;;;;4.32;2.90;;;;;;;16.02;38.68;95308.75;5037842;28;20213;-69
2023/05/03 08:41:30;;;;;;;4.70;2.50;;;;;;;15.97;38.65;95298.66;5032904;28;20251;-70
2023/05/03 08:43:57;;;;;;;2.90;2.55;;;;;;;16.02;38.83;95285.69;5031545;28;20217;-69
2023/05/03 08:46:24;;;;;;;5.15;2.70;;;;;;;16.15;38.77;95287.75;5027376;28;20240;-69
2023/05/03 08:48:51;;;;;;;3.83;2.88;;;;;;;16.19;38.56;95283.72;5036808;28;20243;-71
2023/05/03 08:51:18;;;;;;;4.35;2.67;;;;;;;16.41;38.26;95287.34;5024116;28;20214;-71
2023/05/03 08:53:44;;;;;;;7.15;2.83;;;;;;;16.44;38.77;95286.13;5043277;28;20560;-71
2023/05/03 08:56:18;;;;;;;3.17;2.80;;;;;;;16.50;38.72;95291.56;5029784;28;20218;-71
2023/05/03 08:58:44;;;;;;;4.70;3.40;;;;;;;16.51;38.48;95298.50;5036622;28;20221;-71
2023/05/03 09:01:09;;;;;;;3.47;2.72;;;;;;;16.54;38.24;95289.34;5026091;28;20263;-71
2023/05/03 09:03:35;;;;;;;4.28;2.72;;;;;;;16.62;37.80;95293.75;5034592;28;20752;-71
2023/05/03 09:06:01;;;;;;;3.80;2.75;;;;;;;16.55;38.42;95301.63;5041828;28;20217;-71
2023/05/03 09:08:41;;;;;;;5.30;2.90;;;;;;;16.76;37.88;95298.25;5027241;28;20225;-71
2023/05/03 09:11:20;;;;;;;5.72;2.88;;;;;;;16.67;38.19;95286.06;5043152;28;20224;-71
2023/05/03 09:13:45;;;;;;;5.63;2.92;;;;;;;16.68;38.49;95285.03;5030475;28;20229;-71
2023/05/03 09:16:11;;;;;;;3.22;2.85;;;;;;;16.80;38.28;95280.97;5038589;28;20185;-70
2023/05/03 09:18:36;;;;;;;3.47;2.53;;;;;;;16.99;37.50;95279.56;5032115;28;20245;-70
2023/05/03 09:21:02;;;;;;;5.43;2.95;;;;;;;17.05;37.33;95262.88;5020579;28;20218;-70
2023/05/03 09:23:29;;;;;;;3.45;3.13;;;;;;;17.07;37.56;95270.69;5023567;28;20218;-71
2023/05/03 09:25:55;;;;;;;4.20;2.83;;;;;;;17.17;37.50;95261.41;5029801;28;20239;-72
2023/05/03 09:28:21;;;;;;;3.10;2.80;;;;;;;17.49;36.90;95256.66;5030642;28;20186;-72
2023/05/03 09:30:49;;;;;;;2.85;2.58;;;;;;;17.61;37.12;95264.94;5032389;28;20280;-73
2023/05/03 09:33:20;;;;;;;2.90;2.70;;;;;;;17.67;37.31;95256.22;5045660;28;20220;-71
2023/05/03 09:36:00;;;;;;;5.15;3.20;;;;;;;17.80;36.99;95253.72;5044341;28;20312;-71
2023/05/03 09:38:38;;;;;;;3.53;3.22;;;;;;;17.91;37.01;95247.06;5027077;28;20214;-71
2023/05/03 09:41:05;;;;;;;3.47;3.17;;;;;;;18.16;36.38;95244.81;5038202;28;20220;-71
2023/05/03 09:43:31;;;;;;;4.20;2.92;;;;;;;18.08;35.84;95240.44;5042671;28;20252;-71
2023/05/03 09:46:11;;;;;;;4.63;2.85;;;;;;;18.09;36.10;95233.28;5041909;28;20201;-72
2023/05/03 09:48:38;;;;;;;4.57;3.17;;;;;;;18.47;36.15;95232.94;5022480;28;20245;-72
2023/05/03 09:51:04;;;;;;;4.28;2.95;;;;;;;18.36;36.38;95241.47;5026717;28;20221;-72
2023/05/03 09:53:35;;;;;;;3.55;2.67;;;;;;;18.55;35.76;95226.63;5032531;28;20217;-72
2023/05/03 09:56:11;;;;;;;5.20;2.90;;;;;;;18.50;36.13;95221.91;5028078;28;20220;-72
2023/05/03 09:58:37;;;;;;;3.60;2.90;;;;;;;18.56;36.32;95230.97;5030145;28;20275;-72
2023/05/03 10:01:03;;;;;;;5.13;3.03;;;;;;;18.91;35.79;95221.13;5033960;28;20196;-72
2023/05/03 10:03:49;;;;;;;3.80;2.72;;;;;;;19.29;34.97;95218.78;5031416;28;20226;-72
2023/05/03 10:06:34;;;;;;;6.15;3.03;;;;;;;19.36;34.62;95221.50;5025391;28;20220;-72
2023/05/03 10:09:07;;;;;;;3.72;2.85;;;;;;;18.88;35.25;95222.34;5025073;28;20255;-72
2023/05/03 10:11:37;;;;;;;2.88;2.60;;;;;;;19.02;35.54;95217.06;5031122;28;20885;-72
2023/05/03 10:14:06;;;;;;;3.08;2.78;;;;;;;19.16;35.13;95226.75;5031663;28;20221;-72
2023/05/03 10:16:37;;;;;;;4.70;3.20;;;;;;;19.22;34.84;95223.31;5024236;28;20225;-73
2023/05/03 10:19:15;;;;;;;3.53;2.85;;;;;;;19.32;34.82;95218.38;5031959;28;20219;-72
2023/05/03 10:21:52;;;;;;;4.35;2.35;;;;;;;19.67;34.54;95210.28;5031111;28;20229;-72
2023/05/03 10:24:18;;;;;;;3.03;2.55;;;;;;;19.79;34.01;95198.00;5032530;28;20228;-72
2023/05/03 10:26:46;;;;;;;3.13;2.65;;;;;;;19.64;34.05;95189.31;5028884;28;20218;-72
2023/05/03 10:29:33;;;;;;;2.75;2.55;;;;;;;19.62;34.55;95188.72;5027352;28;20288;-72
2023/05/03 10:32:21;;;;;;;3.10;2.50;;;;;;;19.74;34.83;95181.78;5023044;28;20244;-72
2023/05/03 10:34:54;;;;;;;2.53;2.33;;;;;;;19.95;34.52;95179.94;5022008;28;20686;-73
2023/05/03 10:37:25;;;;;;;3.03;2.80;;;;;;;19.95;34.26;95182.59;5032538;28;20178;-73
2023/05/03 10:39:52;;;;;;;4.18;3.05;;;;;;;19.98;34.21;95179.53;5026700;28;20179;-72
2023/05/03 10:42:21;;;;;;;2.90;2.40;;;;;;;20.11;33.66;95174.19;5027459;28;20225;-72
2023/05/03 10:44:51;;;;;;;4.03;3.15;;;;;;;20.08;33.76;95174.59;5033044;28;20263;-71
2023/05/03 10:47:22;;;;;;;4.88;2.70;;;;;;;20.08;33.86;95173.78;5038195;28;20221;-71
2023/05/03 10:50:10;;;;;;;4.38;2.90;;;;;;;20.08;33.72;95173.78;5030610;28;20229;-71
2023/05/03 10:52:38;;;;;;;5.18;2.72;;;;;;;19.86;34.31;95187.34;5034821;28;20913;-72
2023/05/03 10:55:13;;;;;;;4.10;2.75;;;;;;;19.58;34.35;95177.63;5021657;28;20612;-72
2023/05/03 10:57:42;;;;;;;3.22;2.70;;;;;;;19.47;34.96;95188.06;5030315;28;20193;-71
2023/05/03 11:00:13;;;;;;;4.63;2.42;;;;;;;19.43;35.38;95181.50;5025940;28;20237;-71
2023/05/03 11:03:01;;;;;;;2.95;2.65;;;;;;;19.36;35.62;95168.97;5031580;28;20249;-71
2023/05/03 11:05:28;;;;;;;3.45;2.60;;;;;;;19.32;35.91;95175.72;4937588;29;20593;-72
2023/05/03 11:08:11;;;;;;;3.15;2.20;;;;;;;19.36;35.02;95168.97;4927781;28;20228;-72
2023/05/03 11:10:37;;;;;;;2.92;2.28;;;;;;;19.35;34.59;95179.84;4941131;28;20225;-73
2023/05/03 11:13:02;;;;;;;4.15;2.50;;;;;;;19.38;34.44;95163.47;4931159;29;20217;-72
2023/05/03 11:15:28;;;;;;;2.45;2.25;;;;;;;19.35;34.26;95164.69;4927728;29;20307;-72
2023/05/03 11:17:54;;;;;;;4.82;2.15;;;;;;;19.36;34.68;95163.66;4928547;29;20229;-70
2023/05/03 11:20:20;;;;;;;2.75;2.38;;;;;;;19.44;34.64;95162.63;4928806;29;20235;-73
2023/05/03 11:22:45;;;;;;;3.60;2.45;;;;;;;19.52;34.51;95172.28;4947515;28;20229;-73
2023/05/03 11:25:11;;;;;;;2.85;2.55;;;;;;;19.48;34.90;95163.03;4941889;29;20197;-72
2023/05/03 11:27:40;;;;;;;2.50;2.30;;;;;;;19.51;34.77;95155.47;4932531;29;20263;-71
2023/05/03 11:30:07;;;;;;;3.15;2.65;;;;;;;19.12;35.47;95137.56;4928625;29;20252;-71
2023/05/03 11:32:32;;;;;;;4.95;2.38;;;;;;;19.46;35.32;95149.09;4915149;28;20351;-72
2023/05/03 11:35:02;;;;;;;2.60;2.40;;;;;;;19.48;35.36;95152.38;4921744;29;20320;-72